sensor_id;sensor_type;location;lat;lon;timestamp;P1;durP1;ratioP1;P2;durP2;ratioP2
62457;SDS011;48509;52.122;5.250;2024-02-28T00:00:07;63.6;;;42.7;;
62457;SDS011;48509;52.122;5.250;2024-02-28T00:01:48;63.8;;;41.3;;
62457;SDS011;48509;52.122;5.250;2024-02-28T00:03:24;70.5;;;44.0;;
62457;SDS011;48509;52.122;5.250;2024-02-28T00:05:00;102.2;;;52.3;;
62457;SDS011;48509;52.122;5.250;2024-02-28T00:08:13;68.7;;;43.6;;
62457;SDS011;48509;52.122;5.250;2024-02-28T00:09:49;72.91;;;45.4;;
62457;SDS011;48509;52.122;5.250;2024-02-28T00:11:25;70.8;;;42.9;;
62457;SDS011;48509;52.122;5.250;2024-02-28T00:14:37;60.9;;;40.21;;
62457;SDS011;48509;52.122;5.250;2024-02-28T00:16:17;66.6;;;43.1;;
62457;SDS011;48509;52.122;5.250;2024-02-28T00:17:54;66.0;;;43.8;;
62457;SDS011;48509;52.122;5.250;2024-02-28T00:19:30;75.11;;;45.7;;
62457;SDS011;48509;52.122;5.250;2024-02-28T00:22:43;89.1;;;49.2;;
62457;SDS011;48509;52.122;5.250;2024-02-28T00:24:19;78.5;;;46.9;;
62457;SDS011;48509;52.122;5.250;2024-02-28T00:25:55;71.7;;;44.6;;
62457;SDS011;48509;52.122;5.250;2024-02-28T00:29:08;78.2;;;46.6;;
62457;SDS011;48509;52.122;5.250;2024-02-28T00:30:44;81.5;;;47.7;;
62457;SDS011;48509;52.122;5.250;2024-02-28T00:32:20;91.5;;;50.0;;
62457;SDS011;48509;52.122;5.250;2024-02-28T00:35:33;85.7;;;47.0;;
62457;SDS011;48509;52.122;5.250;2024-02-28T00:37:09;78.7;;;46.0;;
62457;SDS011;48509;52.122;5.250;2024-02-28T00:38:45;72.11;;;44.5;;
62457;SDS011;48509;52.122;5.250;2024-02-28T00:41:57;77.7;;;45.1;;
62457;SDS011;48509;52.122;5.250;2024-02-28T00:43:33;66.2;;;40.6;;
62457;SDS011;48509;52.122;5.250;2024-02-28T00:45:09;84.2;;;47.2;;
62457;SDS011;48509;52.122;5.250;2024-02-28T00:46:45;74.5;;;45.4;;
62457;SDS011;48509;52.122;5.250;2024-02-28T00:49:58;69.7;;;43.9;;
62457;SDS011;48509;52.122;5.250;2024-02-28T00:51:34;77.11;;;45.0;;
62457;SDS011;48509;52.122;5.250;2024-02-28T00:53:10;78.61;;;46.6;;
62457;SDS011;48509;52.122;5.250;2024-02-28T00:56:22;68.2;;;42.3;;
62457;SDS011;48509;52.122;5.250;2024-02-28T00:57:58;87.9;;;49.3;;
62457;SDS011;48509;52.122;5.250;2024-02-28T00:59:34;73.91;;;46.3;;
62457;SDS011;48509;52.122;5.250;2024-02-28T01:02:47;78.7;;;47.0;;
62457;SDS011;48509;52.122;5.250;2024-02-28T01:04:23;68.91;;;43.4;;
62457;SDS011;48509;52.122;5.250;2024-02-28T01:06:00;78.41;;;45.8;;
62457;SDS011;48509;52.122;5.250;2024-02-28T01:07:36;74.91;;;44.7;;
62457;SDS011;48509;52.122;5.250;2024-02-28T01:12:24;61.5;;;39.5;;
62457;SDS011;48509;52.122;5.250;2024-02-28T01:14:00;85.6;;;47.4;;
62457;SDS011;48509;52.122;5.250;2024-02-28T01:17:15;85.2;;;48.0;;
62457;SDS011;48509;52.122;5.250;2024-02-28T01:18:51;75.3;;;45.4;;
62457;SDS011;48509;52.122;5.250;2024-02-28T01:20:27;87.5;;;48.2;;
62457;SDS011;48509;52.122;5.250;2024-02-28T01:23:40;91.6;;;50.5;;
62457;SDS011;48509;52.122;5.250;2024-02-28T01:25:16;86.7;;;48.3;;
62457;SDS011;48509;52.122;5.250;2024-02-28T01:26:52;81.11;;;46.0;;
62457;SDS011;48509;52.122;5.250;2024-02-28T01:28:28;82.2;;;46.0;;
62457;SDS011;48509;52.122;5.250;2024-02-28T01:31:42;65.7;;;41.2;;
62457;SDS011;48509;52.122;5.250;2024-02-28T01:33:18;67.7;;;42.1;;
62457;SDS011;48509;52.122;5.250;2024-02-28T01:34:58;70.61;;;42.9;;
62457;SDS011;48509;52.122;5.250;2024-02-28T01:38:10;79.8;;;45.9;;
62457;SDS011;48509;52.122;5.250;2024-02-28T01:39:46;78.0;;;46.2;;
62457;SDS011;48509;52.122;5.250;2024-02-28T01:41:22;77.11;;;42.8;;
62457;SDS011;48509;52.122;5.250;2024-02-28T01:44:41;90.7;;;46.7;;
62457;SDS011;48509;52.122;5.250;2024-02-28T01:46:21;89.5;;;48.5;;
62457;SDS011;48509;52.122;5.250;2024-02-28T01:48:00;68.61;;;42.1;;
62457;SDS011;48509;52.122;5.250;2024-02-28T01:49:38;93.0;;;50.0;;
62457;SDS011;48509;52.122;5.250;2024-02-28T01:52:52;68.0;;;42.9;;
62457;SDS011;48509;52.122;5.250;2024-02-28T01:54:28;78.3;;;44.5;;
62457;SDS011;48509;52.122;5.250;2024-02-28T01:56:05;64.5;;;39.9;;
62457;SDS011;48509;52.122;5.250;2024-02-28T01:59:18;63.4;;;38.4;;
62457;SDS011;48509;52.122;5.250;2024-02-28T02:00:54;71.5;;;42.6;;
62457;SDS011;48509;52.122;5.250;2024-02-28T02:02:31;87.2;;;48.4;;
62457;SDS011;48509;52.122;5.250;2024-02-28T02:04:08;90.0;;;47.2;;
62457;SDS011;48509;52.122;5.250;2024-02-28T02:07:20;71.11;;;42.1;;
62457;SDS011;48509;52.122;5.250;2024-02-28T02:08:56;83.1;;;45.9;;
62457;SDS011;48509;52.122;5.250;2024-02-28T02:10:32;67.6;;;42.8;;
62457;SDS011;48509;52.122;5.250;2024-02-28T02:13:47;76.7;;;44.4;;
62457;SDS011;48509;52.122;5.250;2024-02-28T02:15:23;82.1;;;47.1;;
62457;SDS011;48509;52.122;5.250;2024-02-28T02:16:59;96.4;;;49.8;;
62457;SDS011;48509;52.122;5.250;2024-02-28T02:20:15;103.3;;;52.7;;
62457;SDS011;48509;52.122;5.250;2024-02-28T02:21:56;89.5;;;48.6;;
62457;SDS011;48509;52.122;5.250;2024-02-28T02:23:34;93.4;;;49.4;;
62457;SDS011;48509;52.122;5.250;2024-02-28T02:25:10;85.0;;;46.1;;
62457;SDS011;48509;52.122;5.250;2024-02-28T02:28:22;85.7;;;47.6;;
62457;SDS011;48509;52.122;5.250;2024-02-28T02:29:58;68.3;;;40.81;;
62457;SDS011;48509;52.122;5.250;2024-02-28T02:31:34;80.8;;;47.0;;
62457;SDS011;48509;52.122;5.250;2024-02-28T02:34:47;98.7;;;49.6;;
62457;SDS011;48509;52.122;5.250;2024-02-28T02:36:23;94.9;;;48.8;;
62457;SDS011;48509;52.122;5.250;2024-02-28T02:37:59;78.91;;;46.5;;
62457;SDS011;48509;52.122;5.250;2024-02-28T02:41:11;82.9;;;46.5;;
62457;SDS011;48509;52.122;5.250;2024-02-28T02:42:47;79.41;;;46.7;;
62457;SDS011;48509;52.122;5.250;2024-02-28T02:44:23;87.9;;;47.6;;
62457;SDS011;48509;52.122;5.250;2024-02-28T02:45:59;89.6;;;48.2;;
62457;SDS011;48509;52.122;5.250;2024-02-28T02:49:11;76.2;;;44.0;;
62457;SDS011;48509;52.122;5.250;2024-02-28T02:50:48;93.8;;;48.4;;
62457;SDS011;48509;52.122;5.250;2024-02-28T02:52:24;83.6;;;46.7;;
62457;SDS011;48509;52.122;5.250;2024-02-28T02:55:41;82.4;;;47.6;;
62457;SDS011;48509;52.122;5.250;2024-02-28T02:57:17;82.4;;;47.6;;
62457;SDS011;48509;52.122;5.250;2024-02-28T02:58:53;92.9;;;49.3;;
62457;SDS011;48509;52.122;5.250;2024-02-28T03:02:05;92.7;;;49.5;;
62457;SDS011;48509;52.122;5.250;2024-02-28T03:03:41;76.5;;;44.9;;
62457;SDS011;48509;52.122;5.250;2024-02-28T03:05:18;95.7;;;49.2;;
62457;SDS011;48509;52.122;5.250;2024-02-28T03:06:54;95.3;;;50.2;;
62457;SDS011;48509;52.122;5.250;2024-02-28T03:11:42;83.4;;;48.1;;
62457;SDS011;48509;52.122;5.250;2024-02-28T03:13:18;85.8;;;46.0;;
62457;SDS011;48509;52.122;5.250;2024-02-28T03:16:31;82.0;;;43.1;;
62457;SDS011;48509;52.122;5.250;2024-02-28T03:18:07;81.91;;;44.7;;
62457;SDS011;48509;52.122;5.250;2024-02-28T03:19:44;95.5;;;48.0;;
62457;SDS011;48509;52.122;5.250;2024-02-28T03:22:56;79.3;;;44.3;;
62457;SDS011;48509;52.122;5.250;2024-02-28T03:24:32;95.5;;;47.5;;
62457;SDS011;48509;52.122;5.250;2024-02-28T03:26:08;70.2;;;41.8;;
62457;SDS011;48509;52.122;5.250;2024-02-28T03:27:44;66.7;;;40.0;;
62457;SDS011;48509;52.122;5.250;2024-02-28T03:30:56;74.7;;;42.3;;
62457;SDS011;48509;52.122;5.250;2024-02-28T03:32:32;82.2;;;44.8;;
62457;SDS011;48509;52.122;5.250;2024-02-28T03:34:09;69.91;;;40.6;;
62457;SDS011;48509;52.122;5.250;2024-02-28T03:37:21;73.0;;;42.5;;
62457;SDS011;48509;52.122;5.250;2024-02-28T03:39:00;77.41;;;44.8;;
62457;SDS011;48509;52.122;5.250;2024-02-28T03:40:36;76.11;;;42.1;;
62457;SDS011;48509;52.122;5.250;2024-02-28T03:43:48;73.2;;;42.0;;
62457;SDS011;48509;52.122;5.250;2024-02-28T03:45:27;61.9;;;37.4;;
62457;SDS011;48509;52.122;5.250;2024-02-28T03:47:04;71.8;;;41.5;;
62457;SDS011;48509;52.122;5.250;2024-02-28T03:48:40;73.5;;;43.1;;
62457;SDS011;48509;52.122;5.250;2024-02-28T03:51:53;72.2;;;40.1;;
62457;SDS011;48509;52.122;5.250;2024-02-28T03:53:29;79.91;;;44.6;;
62457;SDS011;48509;52.122;5.250;2024-02-28T03:55:05;62.5;;;37.4;;
62457;SDS011;48509;52.122;5.250;2024-02-28T03:58:18;65.6;;;41.0;;
62457;SDS011;48509;52.122;5.250;2024-02-28T03:59:54;63.1;;;39.71;;
62457;SDS011;48509;52.122;5.250;2024-02-28T04:01:30;64.8;;;40.4;;
62457;SDS011;48509;52.122;5.250;2024-02-28T04:04:42;71.41;;;41.3;;
62457;SDS011;48509;52.122;5.250;2024-02-28T04:06:18;92.2;;;47.3;;
62457;SDS011;48509;52.122;5.250;2024-02-28T04:07:55;68.3;;;40.6;;
62457;SDS011;48509;52.122;5.250;2024-02-28T04:11:07;75.61;;;43.7;;
62457;SDS011;48509;52.122;5.250;2024-02-28T04:12:43;53.7;;;34.4;;
62457;SDS011;48509;52.122;5.250;2024-02-28T04:14:19;70.7;;;41.9;;
62457;SDS011;48509;52.122;5.250;2024-02-28T04:19:07;52.6;;;35.0;;
62457;SDS011;48509;52.122;5.250;2024-02-28T04:20:43;60.8;;;39.31;;
62457;SDS011;48509;52.122;5.250;2024-02-28T04:22:20;58.1;;;38.9;;
62457;SDS011;48509;52.122;5.250;2024-02-28T04:25:32;62.8;;;40.21;;
62457;SDS011;48509;52.122;5.250;2024-02-28T04:27:08;54.9;;;37.21;;
62457;SDS011;48509;52.122;5.250;2024-02-28T04:28:44;51.3;;;36.4;;
62457;SDS011;48509;52.122;5.250;2024-02-28T04:31:56;59.5;;;40.0;;
62457;SDS011;48509;52.122;5.250;2024-02-28T04:33:32;48.4;;;32.21;;
62457;SDS011;48509;52.122;5.250;2024-02-28T04:35:09;47.8;;;33.5;;
62457;SDS011;48509;52.122;5.250;2024-02-28T04:36:46;60.5;;;40.81;;
62457;SDS011;48509;52.122;5.250;2024-02-28T04:39:58;55.4;;;37.31;;
62457;SDS011;48509;52.122;5.250;2024-02-28T04:41:34;52.1;;;35.5;;
62457;SDS011;48509;52.122;5.250;2024-02-28T04:43:10;61.9;;;39.31;;
62457;SDS011;48509;52.122;5.250;2024-02-28T04:46:22;57.7;;;36.6;;
62457;SDS011;48509;52.122;5.250;2024-02-28T04:47:58;49.1;;;33.4;;
62457;SDS011;48509;52.122;5.250;2024-02-28T04:49:36;50.7;;;34.31;;
62457;SDS011;48509;52.122;5.250;2024-02-28T04:52:51;55.5;;;35.21;;
62457;SDS011;48509;52.122;5.250;2024-02-28T04:54:27;53.9;;;35.81;;
62457;SDS011;48509;52.122;5.250;2024-02-28T04:56:03;68.5;;;39.21;;
62457;SDS011;48509;52.122;5.250;2024-02-28T04:59:15;61.1;;;39.21;;
62457;SDS011;48509;52.122;5.250;2024-02-28T05:00:51;48.9;;;33.3;;
62457;SDS011;48509;52.122;5.250;2024-02-28T05:02:27;52.4;;;36.1;;
62457;SDS011;48509;52.122;5.250;2024-02-28T05:04:04;51.6;;;37.6;;
62457;SDS011;48509;52.122;5.250;2024-02-28T05:07:16;67.0;;;43.0;;
62457;SDS011;48509;52.122;5.250;2024-02-28T05:08:52;57.2;;;37.9;;
62457;SDS011;48509;52.122;5.250;2024-02-28T05:10:28;53.5;;;38.0;;
62457;SDS011;48509;52.122;5.250;2024-02-28T05:13:41;69.7;;;43.0;;
62457;SDS011;48509;52.122;5.250;2024-02-28T05:15:17;51.8;;;38.9;;
62457;SDS011;48509;52.122;5.250;2024-02-28T05:16:53;43.2;;;31.7;;
62457;SDS011;48509;52.122;5.250;2024-02-28T05:20:06;52.4;;;36.6;;
62457;SDS011;48509;52.122;5.250;2024-02-28T05:21:43;60.6;;;39.6;;
62457;SDS011;48509;52.122;5.250;2024-02-28T05:23:20;56.0;;;37.9;;
62457;SDS011;48509;52.122;5.250;2024-02-28T05:24:56;47.3;;;34.4;;
62457;SDS011;48509;52.122;5.250;2024-02-28T05:28:10;43.6;;;33.6;;
62457;SDS011;48509;52.122;5.250;2024-02-28T05:29:46;43.8;;;31.3;;
62457;SDS011;48509;52.122;5.250;2024-02-28T05:31:24;51.2;;;36.9;;
62457;SDS011;48509;52.122;5.250;2024-02-28T05:34:37;52.5;;;37.31;;
62457;SDS011;48509;52.122;5.250;2024-02-28T05:36:13;50.3;;;34.6;;
62457;SDS011;48509;52.122;5.250;2024-02-28T05:37:52;50.7;;;36.4;;
62457;SDS011;48509;52.122;5.250;2024-02-28T05:41:05;52.4;;;36.31;;
62457;SDS011;48509;52.122;5.250;2024-02-28T05:42:41;44.5;;;33.5;;
62457;SDS011;48509;52.122;5.250;2024-02-28T05:44:17;50.0;;;36.4;;
62457;SDS011;48509;52.122;5.250;2024-02-28T05:45:53;47.9;;;35.5;;
62457;SDS011;48509;52.122;5.250;2024-02-28T05:49:05;51.8;;;36.21;;
62457;SDS011;48509;52.122;5.250;2024-02-28T05:50:42;53.4;;;40.31;;
62457;SDS011;48509;52.122;5.250;2024-02-28T05:52:18;54.6;;;38.1;;
62457;SDS011;48509;52.122;5.250;2024-02-28T05:55:30;48.9;;;35.81;;
62457;SDS011;48509;52.122;5.250;2024-02-28T05:57:06;48.8;;;35.4;;
62457;SDS011;48509;52.122;5.250;2024-02-28T05:58:43;53.3;;;38.5;;
62457;SDS011;48509;52.122;5.250;2024-02-28T06:01:55;55.9;;;38.0;;
62457;SDS011;48509;52.122;5.250;2024-02-28T06:03:31;49.4;;;37.21;;
62457;SDS011;48509;52.122;5.250;2024-02-28T06:05:08;46.9;;;36.71;;
62457;SDS011;48509;52.122;5.250;2024-02-28T06:06:44;46.9;;;35.4;;
62457;SDS011;48509;52.122;5.250;2024-02-28T06:09:56;40.4;;;30.7;;
62457;SDS011;48509;52.122;5.250;2024-02-28T06:11:32;43.3;;;34.31;;
62457;SDS011;48509;52.122;5.250;2024-02-28T06:13:08;48.0;;;35.21;;
62457;SDS011;48509;52.122;5.250;2024-02-28T06:16:20;46.1;;;33.6;;
62457;SDS011;48509;52.122;5.250;2024-02-28T06:17:56;50.2;;;37.4;;
62457;SDS011;48509;52.122;5.250;2024-02-28T06:19:32;47.1;;;36.4;;
62457;SDS011;48509;52.122;5.250;2024-02-28T06:22:44;48.5;;;35.81;;
62457;SDS011;48509;52.122;5.250;2024-02-28T06:24:21;53.3;;;39.71;;
62457;SDS011;48509;52.122;5.250;2024-02-28T06:25:57;41.2;;;31.5;;
62457;SDS011;48509;52.122;5.250;2024-02-28T06:29:09;44.4;;;34.5;;
62457;SDS011;48509;52.122;5.250;2024-02-28T06:30:45;46.2;;;35.81;;
62457;SDS011;48509;52.122;5.250;2024-02-28T06:32:23;46.9;;;33.6;;
62457;SDS011;48509;52.122;5.250;2024-02-28T06:33:59;41.3;;;31.8;;
62457;SDS011;48509;52.122;5.250;2024-02-28T06:37:11;42.0;;;33.3;;
62457;SDS011;48509;52.122;5.250;2024-02-28T06:38:50;40.1;;;30.0;;
62457;SDS011;48509;52.122;5.250;2024-02-28T06:40:25;37.71;;;29.7;;
62457;SDS011;48509;52.122;5.250;2024-02-28T06:43:38;43.8;;;32.8;;
62457;SDS011;48509;52.122;5.250;2024-02-28T06:45:14;45.8;;;32.71;;
62457;SDS011;48509;52.122;5.250;2024-02-28T06:46:50;41.7;;;30.9;;
62457;SDS011;48509;52.122;5.250;2024-02-28T06:50:03;46.1;;;31.8;;
62457;SDS011;48509;52.122;5.250;2024-02-28T06:51:41;39.1;;;31.1;;
62457;SDS011;48509;52.122;5.250;2024-02-28T06:53:19;43.2;;;34.1;;
62457;SDS011;48509;52.122;5.250;2024-02-28T06:54:55;47.1;;;34.81;;
62457;SDS011;48509;52.122;5.250;2024-02-28T06:58:08;40.31;;;30.2;;
62457;SDS011;48509;52.122;5.250;2024-02-28T06:59:44;47.5;;;37.1;;
62457;SDS011;48509;52.122;5.250;2024-02-28T07:01:23;50.5;;;37.9;;
62457;SDS011;48509;52.122;5.250;2024-02-28T07:04:35;40.21;;;32.3;;
62457;SDS011;48509;52.122;5.250;2024-02-28T07:07:47;45.0;;;32.9;;
62457;SDS011;48509;52.122;5.250;2024-02-28T07:10:59;46.2;;;36.21;;
62457;SDS011;48509;52.122;5.250;2024-02-28T07:12:35;52.5;;;38.4;;
62457;SDS011;48509;52.122;5.250;2024-02-28T07:14:12;46.0;;;34.21;;
62457;SDS011;48509;52.122;5.250;2024-02-28T07:15:48;47.3;;;34.5;;
62457;SDS011;48509;52.122;5.250;2024-02-28T07:19:00;47.7;;;33.21;;
62457;SDS011;48509;52.122;5.250;2024-02-28T07:20:37;45.6;;;35.0;;
62457;SDS011;48509;52.122;5.250;2024-02-28T07:22:13;42.6;;;32.9;;
62457;SDS011;48509;52.122;5.250;2024-02-28T07:25:25;52.8;;;39.1;;
62457;SDS011;48509;52.122;5.250;2024-02-28T07:27:01;47.1;;;33.5;;
62457;SDS011;48509;52.122;5.250;2024-02-28T07:28:38;42.5;;;34.31;;
62457;SDS011;48509;52.122;5.250;2024-02-28T07:31:50;46.5;;;33.71;;
62457;SDS011;48509;52.122;5.250;2024-02-28T07:33:26;46.5;;;34.71;;
62457;SDS011;48509;52.122;5.250;2024-02-28T07:35:02;44.7;;;34.31;;
62457;SDS011;48509;52.122;5.250;2024-02-28T07:38:14;41.4;;;31.1;;
62457;SDS011;48509;52.122;5.250;2024-02-28T07:39:50;37.6;;;29.5;;
62457;SDS011;48509;52.122;5.250;2024-02-28T07:41:26;40.4;;;33.21;;
62457;SDS011;48509;52.122;5.250;2024-02-28T07:43:03;39.81;;;31.7;;
62457;SDS011;48509;52.122;5.250;2024-02-28T07:46:16;41.5;;;31.8;;
62457;SDS011;48509;52.122;5.250;2024-02-28T07:47:52;42.5;;;33.3;;
62457;SDS011;48509;52.122;5.250;2024-02-28T07:49:28;41.4;;;28.7;;
62457;SDS011;48509;52.122;5.250;2024-02-28T07:52:40;49.9;;;34.9;;
62457;SDS011;48509;52.122;5.250;2024-02-28T07:54:16;37.1;;;29.9;;
62457;SDS011;48509;52.122;5.250;2024-02-28T07:55:52;46.7;;;34.21;;
62457;SDS011;48509;52.122;5.250;2024-02-28T07:59:07;37.0;;;27.8;;
62457;SDS011;48509;52.122;5.250;2024-02-28T08:00:43;38.31;;;29.4;;
62457;SDS011;48509;52.122;5.250;2024-02-28T08:02:20;44.7;;;33.71;;
62457;SDS011;48509;52.122;5.250;2024-02-28T08:03:56;44.7;;;33.71;;
62457;SDS011;48509;52.122;5.250;2024-02-28T08:07:08;43.4;;;32.5;;
62457;SDS011;48509;52.122;5.250;2024-02-28T08:08:44;46.0;;;32.0;;
62457;SDS011;48509;52.122;5.250;2024-02-28T08:10:20;41.6;;;32.3;;
62457;SDS011;48509;52.122;5.250;2024-02-28T08:13:32;44.4;;;32.21;;
62457;SDS011;48509;52.122;5.250;2024-02-28T08:15:09;46.8;;;31.6;;
62457;SDS011;48509;52.122;5.250;2024-02-28T08:16:46;41.2;;;30.7;;
62457;SDS011;48509;52.122;5.250;2024-02-28T08:19:58;50.8;;;32.1;;
62457;SDS011;48509;52.122;5.250;2024-02-28T08:21:34;48.0;;;34.5;;
62457;SDS011;48509;52.122;5.250;2024-02-28T08:23:10;36.0;;;28.4;;
62457;SDS011;48509;52.122;5.250;2024-02-28T08:24:46;45.0;;;33.1;;
62457;SDS011;48509;52.122;5.250;2024-02-28T08:27:59;41.6;;;33.3;;
62457;SDS011;48509;52.122;5.250;2024-02-28T08:29:35;42.4;;;31.1;;
62457;SDS011;48509;52.122;5.250;2024-02-28T08:31:12;44.8;;;32.1;;
62457;SDS011;48509;52.122;5.250;2024-02-28T08:34:24;47.4;;;32.8;;
62457;SDS011;48509;52.122;5.250;2024-02-28T08:36:00;43.1;;;30.0;;
62457;SDS011;48509;52.122;5.250;2024-02-28T08:37:38;54.5;;;35.71;;
62457;SDS011;48509;52.122;5.250;2024-02-28T08:40:51;43.6;;;32.3;;
62457;SDS011;48509;52.122;5.250;2024-02-28T08:42:27;41.4;;;28.4;;
62457;SDS011;48509;52.122;5.250;2024-02-28T08:44:03;40.31;;;28.5;;
62457;SDS011;48509;52.122;5.250;2024-02-28T08:47:15;43.5;;;32.71;;
62457;SDS011;48509;52.122;5.250;2024-02-28T08:48:51;43.5;;;31.1;;
62457;SDS011;48509;52.122;5.250;2024-02-28T08:50:28;45.6;;;32.6;;
62457;SDS011;48509;52.122;5.250;2024-02-28T08:52:04;41.3;;;29.5;;
62457;SDS011;48509;52.122;5.250;2024-02-28T08:55:16;37.4;;;29.5;;
62457;SDS011;48509;52.122;5.250;2024-02-28T08:56:52;41.4;;;30.5;;
62457;SDS011;48509;52.122;5.250;2024-02-28T08:58:28;40.31;;;29.7;;
62457;SDS011;48509;52.122;5.250;2024-02-28T09:01:42;39.9;;;30.1;;
62457;SDS011;48509;52.122;5.250;2024-02-28T09:03:18;37.5;;;28.7;;
62457;SDS011;48509;52.122;5.250;2024-02-28T09:04:54;41.2;;;31.5;;
62457;SDS011;48509;52.122;5.250;2024-02-28T09:08:07;41.2;;;29.8;;
62457;SDS011;48509;52.122;5.250;2024-02-28T09:09:44;43.1;;;30.0;;
62457;SDS011;48509;52.122;5.250;2024-02-28T09:11:21;37.71;;;29.1;;
62457;SDS011;48509;52.122;5.250;2024-02-28T09:12:57;39.1;;;29.7;;
62457;SDS011;48509;52.122;5.250;2024-02-28T09:16:09;39.21;;;29.3;;
62457;SDS011;48509;52.122;5.250;2024-02-28T09:17:45;39.5;;;29.4;;
62457;SDS011;48509;52.122;5.250;2024-02-28T09:19:21;38.71;;;28.6;;
62457;SDS011;48509;52.122;5.250;2024-02-28T09:22:35;45.1;;;29.8;;
62457;SDS011;48509;52.122;5.250;2024-02-28T09:24:11;35.4;;;26.2;;
62457;SDS011;48509;52.122;5.250;2024-02-28T09:25:48;36.4;;;27.6;;
62457;SDS011;48509;52.122;5.250;2024-02-28T09:29:00;41.1;;;28.7;;
62457;SDS011;48509;52.122;5.250;2024-02-28T09:30:36;35.5;;;26.0;;
62457;SDS011;48509;52.122;5.250;2024-02-28T09:32:12;38.9;;;28.1;;
62457;SDS011;48509;52.122;5.250;2024-02-28T09:33:48;38.0;;;27.4;;
62457;SDS011;48509;52.122;5.250;2024-02-28T09:37:00;32.9;;;25.6;;
62457;SDS011;48509;52.122;5.250;2024-02-28T09:38:37;34.6;;;27.1;;
62457;SDS011;48509;52.122;5.250;2024-02-28T09:40:13;38.5;;;26.9;;
62457;SDS011;48509;52.122;5.250;2024-02-28T09:43:27;35.6;;;25.5;;
62457;SDS011;48509;52.122;5.250;2024-02-28T09:45:05;38.0;;;25.4;;
62457;SDS011;48509;52.122;5.250;2024-02-28T09:46:45;37.21;;;27.6;;
62457;SDS011;48509;52.122;5.250;2024-02-28T09:49:59;36.31;;;28.2;;
62457;SDS011;48509;52.122;5.250;2024-02-28T09:51:37;37.9;;;26.6;;
62457;SDS011;48509;52.122;5.250;2024-02-28T09:53:13;37.9;;;27.5;;
62457;SDS011;48509;52.122;5.250;2024-02-28T09:54:50;38.0;;;27.7;;
62457;SDS011;48509;52.122;5.250;2024-02-28T09:58:03;32.9;;;26.1;;
62457;SDS011;48509;52.122;5.250;2024-02-28T09:59:40;34.5;;;26.1;;
62457;SDS011;48509;52.122;5.250;2024-02-28T10:01:18;34.4;;;26.4;;
62457;SDS011;48509;52.122;5.250;2024-02-28T10:04:34;36.1;;;26.4;;
62457;SDS011;48509;52.122;5.250;2024-02-28T10:06:12;37.1;;;25.6;;
62457;SDS011;48509;52.122;5.250;2024-02-28T10:07:49;38.4;;;27.4;;
62457;SDS011;48509;52.122;5.250;2024-02-28T10:09:25;32.1;;;26.0;;
62457;SDS011;48509;52.122;5.250;2024-02-28T10:12:40;36.5;;;27.8;;
62457;SDS011;48509;52.122;5.250;2024-02-28T10:14:17;40.31;;;29.4;;
62457;SDS011;48509;52.122;5.250;2024-02-28T10:15:54;40.21;;;29.1;;
62457;SDS011;48509;52.122;5.250;2024-02-28T10:19:06;39.21;;;29.3;;
62457;SDS011;48509;52.122;5.250;2024-02-28T10:20:42;40.6;;;31.3;;
62457;SDS011;48509;52.122;5.250;2024-02-28T10:22:18;43.5;;;31.1;;
62457;SDS011;48509;52.122;5.250;2024-02-28T10:25:33;44.0;;;31.0;;
62457;SDS011;48509;52.122;5.250;2024-02-28T10:27:17;42.3;;;31.7;;
62457;SDS011;48509;52.122;5.250;2024-02-28T10:28:53;40.6;;;30.5;;
62457;SDS011;48509;52.122;5.250;2024-02-28T10:30:30;47.4;;;32.5;;
62457;SDS011;48509;52.122;5.250;2024-02-28T10:33:42;45.9;;;31.7;;
62457;SDS011;48509;52.122;5.250;2024-02-28T10:35:18;47.0;;;33.5;;
62457;SDS011;48509;52.122;5.250;2024-02-28T10:36:55;43.3;;;34.31;;
62457;SDS011;48509;52.122;5.250;2024-02-28T10:40:09;49.8;;;34.4;;
62457;SDS011;48509;52.122;5.250;2024-02-28T10:41:47;49.3;;;36.81;;
62457;SDS011;48509;52.122;5.250;2024-02-28T10:43:24;51.7;;;35.71;;
62457;SDS011;48509;52.122;5.250;2024-02-28T10:45:04;50.9;;;35.1;;
62457;SDS011;48509;52.122;5.250;2024-02-28T10:48:25;48.0;;;36.6;;
62457;SDS011;48509;52.122;5.250;2024-02-28T10:50:02;50.7;;;37.4;;
62457;SDS011;48509;52.122;5.250;2024-02-28T10:51:38;51.3;;;37.5;;
62457;SDS011;48509;52.122;5.250;2024-02-28T10:53:20;48.1;;;34.4;;
62457;SDS011;48509;52.122;5.250;2024-02-28T10:56:52;55.3;;;38.4;;
62457;SDS011;48509;52.122;5.250;2024-02-28T10:58:29;53.7;;;37.31;;
62457;SDS011;48509;52.122;5.250;2024-02-28T11:00:11;46.1;;;35.1;;
62457;SDS011;48509;52.122;5.250;2024-02-28T11:01:49;51.6;;;35.71;;
62457;SDS011;48509;52.122;5.250;2024-02-28T11:05:02;53.3;;;37.21;;
62457;SDS011;48509;52.122;5.250;2024-02-28T11:06:47;49.2;;;34.81;;
62457;SDS011;48509;52.122;5.250;2024-02-28T11:08:27;52.1;;;35.4;;
62457;SDS011;48509;52.122;5.250;2024-02-28T11:10:05;49.3;;;33.4;;
62457;SDS011;48509;52.122;5.250;2024-02-28T11:13:21;46.5;;;32.1;;
62457;SDS011;48509;52.122;5.250;2024-02-28T11:14:58;45.4;;;31.6;;
62457;SDS011;48509;52.122;5.250;2024-02-28T11:16:35;45.5;;;32.21;;
62457;SDS011;48509;52.122;5.250;2024-02-28T11:19:47;44.3;;;32.0;;
62457;SDS011;48509;52.122;5.250;2024-02-28T11:21:23;50.5;;;33.4;;
62457;SDS011;48509;52.122;5.250;2024-02-28T11:23:00;46.1;;;32.21;;
62457;SDS011;48509;52.122;5.250;2024-02-28T11:26:13;42.3;;;31.6;;
62457;SDS011;48509;52.122;5.250;2024-02-28T11:27:49;48.0;;;33.0;;
62457;SDS011;48509;52.122;5.250;2024-02-28T11:29:26;50.5;;;34.9;;
62457;SDS011;48509;52.122;5.250;2024-02-28T11:31:03;51.3;;;35.0;;
62457;SDS011;48509;52.122;5.250;2024-02-28T11:34:16;45.9;;;35.0;;
62457;SDS011;48509;52.122;5.250;2024-02-28T11:35:54;56.6;;;34.81;;
62457;SDS011;48509;52.122;5.250;2024-02-28T11:37:31;49.8;;;35.21;;
62457;SDS011;48509;52.122;5.250;2024-02-28T11:40:48;51.8;;;36.5;;
62457;SDS011;48509;52.122;5.250;2024-02-28T11:42:24;56.2;;;36.1;;
62457;SDS011;48509;52.122;5.250;2024-02-28T11:44:00;47.9;;;34.21;;
62457;SDS011;48509;52.122;5.250;2024-02-28T11:45:38;48.5;;;35.5;;
62457;SDS011;48509;52.122;5.250;2024-02-28T11:48:52;49.3;;;34.6;;
62457;SDS011;48509;52.122;5.250;2024-02-28T11:50:29;46.5;;;33.71;;
62457;SDS011;48509;52.122;5.250;2024-02-28T11:52:05;50.2;;;33.5;;
62457;SDS011;48509;52.122;5.250;2024-02-28T11:55:18;43.9;;;33.4;;
62457;SDS011;48509;52.122;5.250;2024-02-28T11:56:55;50.7;;;34.4;;
62457;SDS011;48509;52.122;5.250;2024-02-28T11:58:31;49.0;;;34.5;;
62457;SDS011;48509;52.122;5.250;2024-02-28T12:01:45;46.7;;;31.2;;
62457;SDS011;48509;52.122;5.250;2024-02-28T12:03:22;49.6;;;34.21;;
62457;SDS011;48509;52.122;5.250;2024-02-28T12:05:01;48.6;;;34.4;;
62457;SDS011;48509;52.122;5.250;2024-02-28T12:06:38;46.9;;;34.1;;
62457;SDS011;48509;52.122;5.250;2024-02-28T12:09:53;54.5;;;34.5;;
62457;SDS011;48509;52.122;5.250;2024-02-28T12:11:29;50.2;;;32.8;;
62457;SDS011;48509;52.122;5.250;2024-02-28T12:13:05;48.6;;;32.5;;
62457;SDS011;48509;52.122;5.250;2024-02-28T12:16:23;45.1;;;30.8;;
62457;SDS011;48509;52.122;5.250;2024-02-28T12:18:06;47.4;;;31.6;;
62457;SDS011;48509;52.122;5.250;2024-02-28T12:19:43;47.4;;;31.6;;
62457;SDS011;48509;52.122;5.250;2024-02-28T12:21:19;46.4;;;30.9;;
62457;SDS011;48509;52.122;5.250;2024-02-28T12:24:31;46.5;;;29.9;;
62457;SDS011;48509;52.122;5.250;2024-02-28T12:26:07;44.7;;;29.7;;
62457;SDS011;48509;52.122;5.250;2024-02-28T12:27:43;43.2;;;29.1;;
62457;SDS011;48509;52.122;5.250;2024-02-28T12:30:55;42.3;;;27.2;;
62457;SDS011;48509;52.122;5.250;2024-02-28T12:32:31;40.6;;;27.7;;
62457;SDS011;48509;52.122;5.250;2024-02-28T12:34:07;36.31;;;26.7;;
62457;SDS011;48509;52.122;5.250;2024-02-28T12:37:20;45.4;;;29.5;;
62457;SDS011;48509;52.122;5.250;2024-02-28T12:38:56;45.6;;;26.6;;